sensor_id;sensor_type;location;lat;lon;timestamp;P1;durP1;ratioP1;P2;durP2;ratioP2
26303;SDS011;57113;48.680;8.890;2023-03-01T00:01:36;12.82;;;8.55;;
26303;SDS011;57113;48.680;8.890;2023-03-01T00:04:02;13.98;;;8.77;;
26303;SDS011;57113;48.680;8.890;2023-03-01T00:06:28;12.80;;;8.48;;
26303;SDS011;57113;48.680;8.890;2023-03-01T00:08:54;15.05;;;8.40;;
26303;SDS011;57113;48.680;8.890;2023-03-01T00:11:22;14.75;;;8.30;;
26303;SDS011;57113;48.680;8.890;2023-03-01T00:13:49;12.10;;;8.45;;
26303;SDS011;57113;48.680;8.890;2023-03-01T00:16:16;14.80;;;8.77;;
26303;SDS011;57113;48.680;8.890;2023-03-01T00:18:42;14.23;;;8.50;;
26303;SDS011;57113;48.680;8.890;2023-03-01T00:21:08;12.38;;;7.97;;
26303;SDS011;57113;48.680;8.890;2023-03-01T00:23:35;16.10;;;8.52;;
26303;SDS011;57113;48.680;8.890;2023-03-01T00:26:02;11.73;;;7.63;;
26303;SDS011;57113;48.680;8.890;2023-03-01T00:28:31;12.95;;;8.57;;
26303;SDS011;57113;48.680;8.890;2023-03-01T00:31:02;11.77;;;7.78;;
26303;SDS011;57113;48.680;8.890;2023-03-01T00:33:28;12.73;;;8.48;;
26303;SDS011;57113;48.680;8.890;2023-03-01T00:35:54;11.90;;;7.65;;
26303;SDS011;57113;48.680;8.890;2023-03-01T00:38:20;13.20;;;8.20;;
26303;SDS011;57113;48.680;8.890;2023-03-01T00:40:46;13.27;;;8.10;;
26303;SDS011;57113;48.680;8.890;2023-03-01T00:43:12;11.93;;;7.60;;
26303;SDS011;57113;48.680;8.890;2023-03-01T00:45:38;12.88;;;7.93;;
26303;SDS011;57113;48.680;8.890;2023-03-01T00:48:04;12.90;;;7.70;;
26303;SDS011;57113;48.680;8.890;2023-03-01T00:50:30;12.48;;;7.70;;
26303;SDS011;57113;48.680;8.890;2023-03-01T00:52:56;11.00;;;7.75;;
26303;SDS011;57113;48.680;8.890;2023-03-01T00:55:23;11.27;;;8.02;;
26303;SDS011;57113;48.680;8.890;2023-03-01T00:57:49;14.30;;;7.90;;
26303;SDS011;57113;48.680;8.890;2023-03-01T01:00:15;11.77;;;7.88;;
26303;SDS011;57113;48.680;8.890;2023-03-01T01:02:41;11.80;;;7.53;;
26303;SDS011;57113;48.680;8.890;2023-03-01T01:05:07;13.13;;;8.38;;
26303;SDS011;57113;48.680;8.890;2023-03-01T01:07:33;13.85;;;8.27;;
26303;SDS011;57113;48.680;8.890;2023-03-01T01:09:59;10.70;;;7.10;;
26303;SDS011;57113;48.680;8.890;2023-03-01T01:12:25;13.32;;;7.53;;
26303;SDS011;57113;48.680;8.890;2023-03-01T01:14:51;12.27;;;7.63;;
26303;SDS011;57113;48.680;8.890;2023-03-01T01:17:17;12.00;;;7.22;;
26303;SDS011;57113;48.680;8.890;2023-03-01T01:19:43;15.38;;;7.93;;
26303;SDS011;57113;48.680;8.890;2023-03-01T01:22:09;10.88;;;7.25;;
26303;SDS011;57113;48.680;8.890;2023-03-01T01:24:35;14.13;;;8.10;;
26303;SDS011;57113;48.680;8.890;2023-03-01T01:27:01;12.25;;;7.88;;
26303;SDS011;57113;48.680;8.890;2023-03-01T01:29:27;14.40;;;8.05;;
26303;SDS011;57113;48.680;8.890;2023-03-01T01:31:53;12.90;;;8.70;;
26303;SDS011;57113;48.680;8.890;2023-03-01T01:34:20;11.35;;;7.70;;
26303;SDS011;57113;48.680;8.890;2023-03-01T01:36:50;12.55;;;8.10;;
26303;SDS011;57113;48.680;8.890;2023-03-01T01:39:18;13.70;;;7.88;;
26303;SDS011;57113;48.680;8.890;2023-03-01T01:41:44;13.27;;;7.90;;
26303;SDS011;57113;48.680;8.890;2023-03-01T01:46:37;12.27;;;8.05;;
26303;SDS011;57113;48.680;8.890;2023-03-01T01:49:05;14.18;;;8.70;;
26303;SDS011;57113;48.680;8.890;2023-03-01T01:51:34;12.70;;;7.95;;
26303;SDS011;57113;48.680;8.890;2023-03-01T01:54:03;12.40;;;7.95;;
26303;SDS011;57113;48.680;8.890;2023-03-01T01:56:31;13.93;;;8.45;;
26303;SDS011;57113;48.680;8.890;2023-03-01T01:58:58;13.65;;;8.48;;
26303;SDS011;57113;48.680;8.890;2023-03-01T02:01:24;13.00;;;7.85;;
26303;SDS011;57113;48.680;8.890;2023-03-01T02:03:50;12.32;;;7.93;;
26303;SDS011;57113;48.680;8.890;2023-03-01T02:06:18;12.90;;;8.35;;
26303;SDS011;57113;48.680;8.890;2023-03-01T02:08:45;13.38;;;8.30;;
26303;SDS011;57113;48.680;8.890;2023-03-01T02:11:12;11.43;;;7.97;;
26303;SDS011;57113;48.680;8.890;2023-03-01T02:13:42;12.20;;;8.10;;
26303;SDS011;57113;48.680;8.890;2023-03-01T02:16:09;12.15;;;7.60;;
26303;SDS011;57113;48.680;8.890;2023-03-01T02:18:36;13.48;;;7.93;;
26303;SDS011;57113;48.680;8.890;2023-03-01T02:23:29;15.30;;;8.07;;
26303;SDS011;57113;48.680;8.890;2023-03-01T02:26:02;13.77;;;8.27;;
26303;SDS011;57113;48.680;8.890;2023-03-01T02:28:32;11.13;;;7.55;;
26303;SDS011;57113;48.680;8.890;2023-03-01T02:30:59;14.02;;;8.13;;
26303;SDS011;57113;48.680;8.890;2023-03-01T02:33:44;14.40;;;8.40;;
26303;SDS011;57113;48.680;8.890;2023-03-01T02:36:14;12.38;;;8.00;;
26303;SDS011;57113;48.680;8.890;2023-03-01T02:38:41;14.45;;;8.60;;
26303;SDS011;57113;48.680;8.890;2023-03-01T02:41:08;14.10;;;8.07;;
26303;SDS011;57113;48.680;8.890;2023-03-01T02:43:34;13.98;;;8.30;;
26303;SDS011;57113;48.680;8.890;2023-03-01T02:46:23;11.90;;;7.68;;
26303;SDS011;57113;48.680;8.890;2023-03-01T02:48:49;15.25;;;8.52;;
26303;SDS011;57113;48.680;8.890;2023-03-01T02:56:29;11.90;;;7.75;;
26303;SDS011;57113;48.680;8.890;2023-03-01T02:58:55;12.45;;;7.85;;
26303;SDS011;57113;48.680;8.890;2023-03-01T03:01:25;12.35;;;7.38;;
26303;SDS011;57113;48.680;8.890;2023-03-01T03:04:12;11.23;;;7.13;;
26303;SDS011;57113;48.680;8.890;2023-03-01T03:06:42;13.48;;;7.97;;
26303;SDS011;57113;48.680;8.890;2023-03-01T03:09:08;11.90;;;7.72;;
26303;SDS011;57113;48.680;8.890;2023-03-01T03:11:34;12.57;;;7.72;;
26303;SDS011;57113;48.680;8.890;2023-03-01T03:14:02;15.00;;;8.40;;
26303;SDS011;57113;48.680;8.890;2023-03-01T03:16:28;12.10;;;7.40;;
26303;SDS011;57113;48.680;8.890;2023-03-01T03:18:55;9.65;;;6.72;;
26303;SDS011;57113;48.680;8.890;2023-03-01T03:21:33;13.50;;;7.85;;
26303;SDS011;57113;48.680;8.890;2023-03-01T03:23:59;12.30;;;7.65;;
26303;SDS011;57113;48.680;8.890;2023-03-01T03:26:25;13.18;;;7.70;;
26303;SDS011;57113;48.680;8.890;2023-03-01T03:28:51;11.73;;;7.43;;
26303;SDS011;57113;48.680;8.890;2023-03-01T03:31:17;12.88;;;7.25;;
26303;SDS011;57113;48.680;8.890;2023-03-01T03:33:43;12.63;;;7.28;;
26303;SDS011;57113;48.680;8.890;2023-03-01T03:36:09;10.30;;;6.95;;
26303;SDS011;57113;48.680;8.890;2023-03-01T03:38:38;12.95;;;7.93;;
26303;SDS011;57113;48.680;8.890;2023-03-01T03:41:05;12.88;;;7.35;;
26303;SDS011;57113;48.680;8.890;2023-03-01T03:43:32;11.43;;;7.75;;
26303;SDS011;57113;48.680;8.890;2023-03-01T03:45:59;12.48;;;7.60;;
26303;SDS011;57113;48.680;8.890;2023-03-01T03:48:25;11.10;;;7.38;;
26303;SDS011;57113;48.680;8.890;2023-03-01T03:50:53;11.63;;;7.55;;
26303;SDS011;57113;48.680;8.890;2023-03-01T03:53:19;11.15;;;7.20;;
26303;SDS011;57113;48.680;8.890;2023-03-01T03:55:45;12.80;;;7.70;;
26303;SDS011;57113;48.680;8.890;2023-03-01T03:58:14;10.13;;;7.22;;
26303;SDS011;57113;48.680;8.890;2023-03-01T04:00:42;13.13;;;7.90;;
26303;SDS011;57113;48.680;8.890;2023-03-01T04:03:08;10.60;;;6.82;;
26303;SDS011;57113;48.680;8.890;2023-03-01T04:05:35;11.13;;;7.35;;
26303;SDS011;57113;48.680;8.890;2023-03-01T04:08:01;10.18;;;6.82;;
26303;SDS011;57113;48.680;8.890;2023-03-01T04:10:28;11.77;;;7.00;;
26303;SDS011;57113;48.680;8.890;2023-03-01T04:12:54;15.68;;;7.32;;
26303;SDS011;57113;48.680;8.890;2023-03-01T04:15:24;12.45;;;7.40;;
26303;SDS011;57113;48.680;8.890;2023-03-01T04:17:51;13.75;;;7.13;;
26303;SDS011;57113;48.680;8.890;2023-03-01T04:20:19;13.45;;;7.30;;
26303;SDS011;57113;48.680;8.890;2023-03-01T04:22:52;10.20;;;6.85;;
26303;SDS011;57113;48.680;8.890;2023-03-01T04:25:18;12.55;;;7.55;;
26303;SDS011;57113;48.680;8.890;2023-03-01T04:27:44;11.55;;;7.10;;
26303;SDS011;57113;48.680;8.890;2023-03-01T04:30:10;13.88;;;7.45;;
26303;SDS011;57113;48.680;8.890;2023-03-01T04:32:36;9.57;;;7.03;;
26303;SDS011;57113;48.680;8.890;2023-03-01T04:35:02;11.98;;;7.53;;
26303;SDS011;57113;48.680;8.890;2023-03-01T04:37:29;10.88;;;7.53;;
26303;SDS011;57113;48.680;8.890;2023-03-01T04:39:55;11.25;;;6.90;;
26303;SDS011;57113;48.680;8.890;2023-03-01T04:42:21;13.15;;;7.32;;
26303;SDS011;57113;48.680;8.890;2023-03-01T04:44:47;11.02;;;7.22;;
26303;SDS011;57113;48.680;8.890;2023-03-01T04:47:16;10.60;;;7.03;;
26303;SDS011;57113;48.680;8.890;2023-03-01T04:49:42;13.45;;;7.60;;
26303;SDS011;57113;48.680;8.890;2023-03-01T04:52:08;10.90;;;6.75;;
26303;SDS011;57113;48.680;8.890;2023-03-01T04:54:34;10.45;;;6.85;;
26303;SDS011;57113;48.680;8.890;2023-03-01T04:57:01;12.27;;;7.07;;
26303;SDS011;57113;48.680;8.890;2023-03-01T04:59:28;10.43;;;6.88;;
26303;SDS011;57113;48.680;8.890;2023-03-01T05:01:54;10.55;;;7.03;;
26303;SDS011;57113;48.680;8.890;2023-03-01T05:04:21;11.20;;;7.40;;
26303;SDS011;57113;48.680;8.890;2023-03-01T05:06:47;10.32;;;7.30;;
26303;SDS011;57113;48.680;8.890;2023-03-01T05:09:13;13.93;;;7.53;;
26303;SDS011;57113;48.680;8.890;2023-03-01T05:11:39;12.02;;;7.95;;
26303;SDS011;57113;48.680;8.890;2023-03-01T05:14:06;12.38;;;7.32;;
26303;SDS011;57113;48.680;8.890;2023-03-01T05:16:32;14.40;;;7.63;;
26303;SDS011;57113;48.680;8.890;2023-03-01T05:18:58;11.82;;;7.40;;
26303;SDS011;57113;48.680;8.890;2023-03-01T05:21:25;11.63;;;7.70;;
26303;SDS011;57113;48.680;8.890;2023-03-01T05:23:51;13.57;;;6.93;;
26303;SDS011;57113;48.680;8.890;2023-03-01T05:26:18;12.65;;;7.55;;
26303;SDS011;57113;48.680;8.890;2023-03-01T05:28:44;11.80;;;7.18;;
26303;SDS011;57113;48.680;8.890;2023-03-01T05:31:10;11.45;;;7.50;;
26303;SDS011;57113;48.680;8.890;2023-03-01T05:33:36;11.73;;;7.47;;
26303;SDS011;57113;48.680;8.890;2023-03-01T05:36:03;13.88;;;7.22;;
26303;SDS011;57113;48.680;8.890;2023-03-01T05:38:29;11.93;;;7.82;;
26303;SDS011;57113;48.680;8.890;2023-03-01T05:40:55;11.00;;;7.22;;
26303;SDS011;57113;48.680;8.890;2023-03-01T05:43:21;11.07;;;7.32;;
26303;SDS011;57113;48.680;8.890;2023-03-01T05:45:47;18.95;;;11.32;;
26303;SDS011;57113;48.680;8.890;2023-03-01T05:48:13;21.55;;;14.30;;
26303;SDS011;57113;48.680;8.890;2023-03-01T05:50:40;21.65;;;13.95;;
26303;SDS011;57113;48.680;8.890;2023-03-01T05:53:09;24.80;;;14.82;;
26303;SDS011;57113;48.680;8.890;2023-03-01T05:55:36;23.83;;;14.68;;
26303;SDS011;57113;48.680;8.890;2023-03-01T05:58:02;18.73;;;13.35;;
26303;SDS011;57113;48.680;8.890;2023-03-01T06:00:29;22.15;;;13.52;;
26303;SDS011;57113;48.680;8.890;2023-03-01T06:02:56;23.63;;;13.75;;
26303;SDS011;57113;48.680;8.890;2023-03-01T06:05:22;19.70;;;12.85;;
26303;SDS011;57113;48.680;8.890;2023-03-01T06:07:48;21.50;;;13.35;;
26303;SDS011;57113;48.680;8.890;2023-03-01T06:10:15;19.20;;;12.95;;
26303;SDS011;57113;48.680;8.890;2023-03-01T06:12:42;21.23;;;13.98;;
26303;SDS011;57113;48.680;8.890;2023-03-01T06:15:09;20.58;;;13.70;;
26303;SDS011;57113;48.680;8.890;2023-03-01T06:17:37;18.75;;;11.68;;
26303;SDS011;57113;48.680;8.890;2023-03-01T06:20:04;19.00;;;12.13;;
26303;SDS011;57113;48.680;8.890;2023-03-01T06:22:30;18.83;;;12.35;;
26303;SDS011;57113;48.680;8.890;2023-03-01T06:24:56;20.20;;;12.55;;
26303;SDS011;57113;48.680;8.890;2023-03-01T06:27:22;17.95;;;11.80;;
26303;SDS011;57113;48.680;8.890;2023-03-01T06:29:48;17.30;;;12.15;;
26303;SDS011;57113;48.680;8.890;2023-03-01T06:32:14;18.13;;;11.70;;
26303;SDS011;57113;48.680;8.890;2023-03-01T06:34:40;20.10;;;12.30;;
26303;SDS011;57113;48.680;8.890;2023-03-01T06:37:07;22.38;;;12.20;;
26303;SDS011;57113;48.680;8.890;2023-03-01T06:39:33;18.55;;;11.95;;
26303;SDS011;57113;48.680;8.890;2023-03-01T06:41:59;17.85;;;10.88;;
26303;SDS011;57113;48.680;8.890;2023-03-01T06:44:26;20.33;;;11.95;;
26303;SDS011;57113;48.680;8.890;2023-03-01T06:46:52;17.92;;;11.23;;
26303;SDS011;57113;48.680;8.890;2023-03-01T06:49:18;17.67;;;11.30;;
26303;SDS011;57113;48.680;8.890;2023-03-01T06:51:45;15.70;;;10.63;;
26303;SDS011;57113;48.680;8.890;2023-03-01T06:54:11;17.83;;;10.77;;
26303;SDS011;57113;48.680;8.890;2023-03-01T06:56:37;18.58;;;12.07;;
26303;SDS011;57113;48.680;8.890;2023-03-01T06:59:03;16.42;;;10.55;;
26303;SDS011;57113;48.680;8.890;2023-03-01T07:01:29;16.70;;;10.65;;
26303;SDS011;57113;48.680;8.890;2023-03-01T07:03:55;14.93;;;10.65;;
26303;SDS011;57113;48.680;8.890;2023-03-01T07:06:22;15.90;;;10.88;;
26303;SDS011;57113;48.680;8.890;2023-03-01T07:08:48;15.75;;;10.55;;
26303;SDS011;57113;48.680;8.890;2023-03-01T07:11:14;17.67;;;11.23;;
26303;SDS011;57113;48.680;8.890;2023-03-01T07:13:40;14.50;;;9.70;;
26303;SDS011;57113;48.680;8.890;2023-03-01T07:16:07;15.80;;;9.82;;
26303;SDS011;57113;48.680;8.890;2023-03-01T07:18:33;14.32;;;9.10;;
26303;SDS011;57113;48.680;8.890;2023-03-01T07:21:03;15.30;;;9.38;;
26303;SDS011;57113;48.680;8.890;2023-03-01T07:23:29;15.57;;;9.73;;
26303;SDS011;57113;48.680;8.890;2023-03-01T07:25:55;14.30;;;9.85;;
26303;SDS011;57113;48.680;8.890;2023-03-01T07:28:24;14.82;;;9.27;;
26303;SDS011;57113;48.680;8.890;2023-03-01T07:30:50;14.60;;;9.40;;
26303;SDS011;57113;48.680;8.890;2023-03-01T07:33:16;15.90;;;9.30;;
26303;SDS011;57113;48.680;8.890;2023-03-01T07:35:42;13.25;;;9.45;;
26303;SDS011;57113;48.680;8.890;2023-03-01T07:38:08;16.30;;;9.80;;
26303;SDS011;57113;48.680;8.890;2023-03-01T07:40:34;15.63;;;9.30;;
26303;SDS011;57113;48.680;8.890;2023-03-01T07:43:00;15.57;;;8.88;;
26303;SDS011;57113;48.680;8.890;2023-03-01T07:45:27;16.75;;;8.68;;
26303;SDS011;57113;48.680;8.890;2023-03-01T07:47:53;14.20;;;8.68;;
26303;SDS011;57113;48.680;8.890;2023-03-01T07:50:19;13.85;;;8.85;;
26303;SDS011;57113;48.680;8.890;2023-03-01T07:52:46;14.27;;;8.88;;
26303;SDS011;57113;48.680;8.890;2023-03-01T07:55:13;11.82;;;8.15;;
26303;SDS011;57113;48.680;8.890;2023-03-01T07:57:39;16.23;;;9.23;;
26303;SDS011;57113;48.680;8.890;2023-03-01T08:00:05;14.00;;;9.15;;
26303;SDS011;57113;48.680;8.890;2023-03-01T08:02:32;12.70;;;8.20;;
26303;SDS011;57113;48.680;8.890;2023-03-01T08:04:58;14.13;;;8.90;;
26303;SDS011;57113;48.680;8.890;2023-03-01T08:07:24;12.82;;;8.10;;
26303;SDS011;57113;48.680;8.890;2023-03-01T08:09:50;11.95;;;8.32;;
26303;SDS011;57113;48.680;8.890;2023-03-01T08:12:16;12.88;;;8.52;;
26303;SDS011;57113;48.680;8.890;2023-03-01T08:14:42;13.48;;;8.38;;
26303;SDS011;57113;48.680;8.890;2023-03-01T08:17:08;12.90;;;8.48;;
26303;SDS011;57113;48.680;8.890;2023-03-01T08:19:34;12.85;;;8.73;;
26303;SDS011;57113;48.680;8.890;2023-03-01T08:22:03;14.10;;;8.55;;
26303;SDS011;57113;48.680;8.890;2023-03-01T08:24:29;13.13;;;8.68;;
26303;SDS011;57113;48.680;8.890;2023-03-01T08:26:55;13.27;;;7.75;;
26303;SDS011;57113;48.680;8.890;2023-03-01T08:29:21;13.50;;;8.15;;
26303;SDS011;57113;48.680;8.890;2023-03-01T08:31:49;11.85;;;8.10;;
26303;SDS011;57113;48.680;8.890;2023-03-01T08:34:16;27.45;;;16.23;;
26303;SDS011;57113;48.680;8.890;2023-03-01T08:36:43;31.30;;;15.60;;
26303;SDS011;57113;48.680;8.890;2023-03-01T08:39:13;25.92;;;15.43;;
26303;SDS011;57113;48.680;8.890;2023-03-01T08:41:39;23.25;;;14.93;;
26303;SDS011;57113;48.680;8.890;2023-03-01T08:44:05;25.42;;;14.15;;
26303;SDS011;57113;48.680;8.890;2023-03-01T08:46:33;24.85;;;15.18;;
26303;SDS011;57113;48.680;8.890;2023-03-01T08:48:59;21.08;;;14.18;;
26303;SDS011;57113;48.680;8.890;2023-03-01T08:51:25;26.88;;;17.48;;
26303;SDS011;57113;48.680;8.890;2023-03-01T08:53:52;26.02;;;15.35;;
26303;SDS011;57113;48.680;8.890;2023-03-01T08:56:18;24.05;;;14.95;;
26303;SDS011;57113;48.680;8.890;2023-03-01T08:58:45;23.52;;;15.30;;
26303;SDS011;57113;48.680;8.890;2023-03-01T09:01:14;25.13;;;15.20;;
26303;SDS011;57113;48.680;8.890;2023-03-01T09:03:40;21.67;;;15.07;;
26303;SDS011;57113;48.680;8.890;2023-03-01T09:06:07;24.00;;;14.48;;
26303;SDS011;57113;48.680;8.890;2023-03-01T09:08:36;23.48;;;14.23;;
26303;SDS011;57113;48.680;8.890;2023-03-01T09:11:03;22.35;;;13.50;;
26303;SDS011;57113;48.680;8.890;2023-03-01T09:13:30;23.42;;;13.50;;
26303;SDS011;57113;48.680;8.890;2023-03-01T09:15:56;20.17;;;12.68;;
26303;SDS011;57113;48.680;8.890;2023-03-01T09:18:22;20.35;;;12.85;;
26303;SDS011;57113;48.680;8.890;2023-03-01T09:20:48;18.83;;;12.48;;
26303;SDS011;57113;48.680;8.890;2023-03-01T09:23:14;18.35;;;12.27;;
26303;SDS011;57113;48.680;8.890;2023-03-01T09:25:40;18.90;;;12.05;;
26303;SDS011;57113;48.680;8.890;2023-03-01T09:28:06;17.48;;;11.55;;
26303;SDS011;57113;48.680;8.890;2023-03-01T09:30:32;18.40;;;11.75;;
26303;SDS011;57113;48.680;8.890;2023-03-01T09:32:58;15.70;;;11.20;;
26303;SDS011;57113;48.680;8.890;2023-03-01T09:35:24;17.05;;;10.38;;
26303;SDS011;57113;48.680;8.890;2023-03-01T09:37:50;19.48;;;10.52;;
26303;SDS011;57113;48.680;8.890;2023-03-01T09:40:18;16.05;;;10.65;;
26303;SDS011;57113;48.680;8.890;2023-03-01T09:43:05;15.45;;;10.15;;
26303;SDS011;57113;48.680;8.890;2023-03-01T09:45:33;15.38;;;10.10;;
26303;SDS011;57113;48.680;8.890;2023-03-01T09:48:00;15.55;;;10.13;;
26303;SDS011;57113;48.680;8.890;2023-03-01T09:50:28;15.20;;;9.80;;
26303;SDS011;57113;48.680;8.890;2023-03-01T09:53:04;13.75;;;9.05;;
26303;SDS011;57113;48.680;8.890;2023-03-01T10:00:44;13.65;;;9.00;;
26303;SDS011;57113;48.680;8.890;2023-03-01T10:10:39;30.65;;;18.20;;
26303;SDS011;57113;48.680;8.890;2023-03-01T10:13:17;27.10;;;17.25;;
26303;SDS011;57113;48.680;8.890;2023-03-01T10:15:47;22.98;;;16.08;;
26303;SDS011;57113;48.680;8.890;2023-03-01T10:18:21;23.02;;;15.13;;
26303;SDS011;57113;48.680;8.890;2023-03-01T10:20:56;22.85;;;15.63;;
26303;SDS011;57113;48.680;8.890;2023-03-01T10:23:23;22.50;;;15.10;;
26303;SDS011;57113;48.680;8.890;2023-03-01T10:28:29;20.98;;;13.82;;
26303;SDS011;57113;48.680;8.890;2023-03-01T10:30:57;19.42;;;12.90;;
26303;SDS011;57113;48.680;8.890;2023-03-01T10:33:25;22.00;;;14.75;;
26303;SDS011;57113;48.680;8.890;2023-03-01T10:35:52;17.67;;;12.18;;
26303;SDS011;57113;48.680;8.890;2023-03-01T10:38:19;22.20;;;12.43;;
26303;SDS011;57113;48.680;8.890;2023-03-01T10:40:52;21.40;;;12.98;;
26303;SDS011;57113;48.680;8.890;2023-03-01T10:43:19;18.45;;;11.88;;
26303;SDS011;57113;48.680;8.890;2023-03-01T10:45:46;18.23;;;11.80;;
26303;SDS011;57113;48.680;8.890;2023-03-01T10:48:16;19.30;;;11.65;;
26303;SDS011;57113;48.680;8.890;2023-03-01T10:50:46;19.90;;;11.43;;
26303;SDS011;57113;48.680;8.890;2023-03-01T10:53:20;15.38;;;10.65;;
26303;SDS011;57113;48.680;8.890;2023-03-01T10:55:48;17.75;;;10.77;;
26303;SDS011;57113;48.680;8.890;2023-03-01T10:58:21;20.13;;;10.48;;
26303;SDS011;57113;48.680;8.890;2023-03-01T11:00:55;15.02;;;10.00;;
26303;SDS011;57113;48.680;8.890;2023-03-01T11:03:24;17.33;;;10.67;;
26303;SDS011;57113;48.680;8.890;2023-03-01T11:06:32;14.05;;;9.27;;
26303;SDS011;57113;48.680;8.890;2023-03-01T11:08:40;16.90;;;10.50;;
26303;SDS011;57113;48.680;8.890;2023-03-01T11:11:13;13.65;;;8.98;;
26303;SDS011;57113;48.680;8.890;2023-03-01T11:13:47;15.15;;;9.77;;
26303;SDS011;57113;48.680;8.890;2023-03-01T11:16:15;14.20;;;8.75;;
26303;SDS011;57113;48.680;8.890;2023-03-01T11:18:55;14.95;;;9.10;;
26303;SDS011;57113;48.680;8.890;2023-03-01T11:21:21;15.75;;;9.43;;
26303;SDS011;57113;48.680;8.890;2023-03-01T11:23:47;12.43;;;8.60;;
26303;SDS011;57113;48.680;8.890;2023-03-01T11:26:13;13.95;;;8.65;;
26303;SDS011;57113;48.680;8.890;2023-03-01T11:28:41;12.85;;;8.18;;
26303;SDS011;57113;48.680;8.890;2023-03-01T11:31:08;13.02;;;8.15;;
26303;SDS011;57113;48.680;8.890;2023-03-01T11:33:47;13.13;;;8.30;;
26303;SDS011;57113;48.680;8.890;2023-03-01T11:36:24;14.95;;;7.95;;
26303;SDS011;57113;48.680;8.890;2023-03-01T11:38:53;11.68;;;7.78;;
26303;SDS011;57113;48.680;8.890;2023-03-01T11:41:26;12.20;;;8.05;;
26303;SDS011;57113;48.680;8.890;2023-03-01T11:44:01;12.95;;;8.02;;
26303;SDS011;57113;48.680;8.890;2023-03-01T12:09:56;11.90;;;7.53;;
26303;SDS011;57113;48.680;8.890;2023-03-01T12:12:31;10.07;;;6.93;;
26303;SDS011;57113;48.680;8.890;2023-03-01T12:38:49;16.67;;;12.07;;
26303;SDS011;57113;48.680;8.890;2023-03-01T12:41:20;18.13;;;12.10;;
26303;SDS011;57113;48.680;8.890;2023-03-01T12:51:23;15.18;;;10.52;;
26303;SDS011;57113;48.680;8.890;2023-03-01T12:53:50;13.35;;;9.40;;
26303;SDS011;57113;48.680;8.890;2023-03-01T12:56:18;16.75;;;10.27;;
26303;SDS011;57113;48.680;8.890;2023-03-01T12:59:01;14.40;;;9.38;;
26303;SDS011;57113;48.680;8.890;2023-03-01T13:01:33;13.38;;;9.02;;
26303;SDS011;57113;48.680;8.890;2023-03-01T13:14:59;10.82;;;7.28;;
26303;SDS011;57113;48.680;8.890;2023-03-01T13:17:29;11.35;;;7.22;;
26303;SDS011;57113;48.680;8.890;2023-03-01T13:19:56;11.52;;;7.03;;
26303;SDS011;57113;48.680;8.890;2023-03-01T13:22:27;11.50;;;7.35;;
26303;SDS011;57113;48.680;8.890;2023-03-01T13:25:01;12.48;;;6.90;;
26303;SDS011;57113;48.680;8.890;2023-03-01T13:27:27;11.32;;;7.40;;
26303;SDS011;57113;48.680;8.890;2023-03-01T13:29:58;21.52;;;14.15;;
26303;SDS011;57113;48.680;8.890;2023-03-01T13:35:40;23.45;;;15.68;;
26303;SDS011;57113;48.680;8.890;2023-03-01T13:37:47;26.10;;;15.50;;
26303;SDS011;57113;48.680;8.890;2023-03-01T13:42:44;26.13;;;15.70;;
26303;SDS011;57113;48.680;8.890;2023-03-01T13:47:54;23.55;;;14.02;;
26303;SDS011;57113;48.680;8.890;2023-03-01T13:50:23;25.08;;;15.00;;
26303;SDS011;57113;48.680;8.890;2023-03-01T13:52:54;26.08;;;15.43;;
26303;SDS011;57113;48.680;8.890;2023-03-01T13:55:34;20.95;;;14.43;;
26303;SDS011;57113;48.680;8.890;2023-03-01T13:58:03;23.35;;;14.77;;
26303;SDS011;57113;48.680;8.890;2023-03-01T14:00:32;22.23;;;15.32;;
26303;SDS011;57113;48.680;8.890;2023-03-01T14:03:18;22.88;;;15.20;;
26303;SDS011;57113;48.680;8.890;2023-03-01T14:08:27;22.95;;;15.02;;
26303;SDS011;57113;48.680;8.890;2023-03-01T14:10:57;23.08;;;15.55;;
26303;SDS011;57113;48.680;8.890;2023-03-01T14:18:32;25.35;;;16.58;;
26303;SDS011;57113;48.680;8.890;2023-03-01T14:21:01;25.48;;;16.55;;
26303;SDS011;57113;48.680;8.890;2023-03-01T14:23:32;24.63;;;16.27;;
26303;SDS011;57113;48.680;8.890;2023-03-01T14:26:00;23.77;;;15.70;;
26303;SDS011;57113;48.680;8.890;2023-03-01T14:28:27;26.00;;;15.73;;
26303;SDS011;57113;48.680;8.890;2023-03-01T14:30:54;26.95;;;16.85;;
26303;SDS011;57113;48.680;8.890;2023-03-01T14:36:03;28.02;;;17.27;;
26303;SDS011;57113;48.680;8.890;2023-03-01T14:40:57;29.02;;;17.10;;
26303;SDS011;57113;48.680;8.890;2023-03-01T14:43:23;29.60;;;16.70;;
26303;SDS011;57113;48.680;8.890;2023-03-01T14:45:53;25.45;;;16.70;;
26303;SDS011;57113;48.680;8.890;2023-03-01T14:48:19;24.63;;;15.90;;
26303;SDS011;57113;48.680;8.890;2023-03-01T14:50:45;24.85;;;16.30;;
26303;SDS011;57113;48.680;8.890;2023-03-01T14:53:21;31.05;;;16.60;;
26303;SDS011;57113;48.680;8.890;2023-03-01T14:55:50;24.95;;;16.35;;
26303;SDS011;57113;48.680;8.890;2023-03-01T14:58:19;26.20;;;17.50;;
26303;SDS011;57113;48.680;8.890;2023-03-01T15:00:48;27.92;;;17.13;;
26303;SDS011;57113;48.680;8.890;2023-03-01T15:03:17;27.35;;;17.75;;
26303;SDS011;57113;48.680;8.890;2023-03-01T15:05:45;25.33;;;17.10;;
26303;SDS011;57113;48.680;8.890;2023-03-01T15:08:17;25.10;;;17.40;;
26303;SDS011;57113;48.680;8.890;2023-03-01T15:10:54;23.73;;;15.13;;
26303;SDS011;57113;48.680;8.890;2023-03-01T15:13:22;24.02;;;15.88;;
26303;SDS011;57113;48.680;8.890;2023-03-01T15:15:48;24.77;;;15.43;;
26303;SDS011;57113;48.680;8.890;2023-03-01T15:20:45;23.38;;;15.07;;
26303;SDS011;57113;48.680;8.890;2023-03-01T15:23:20;24.98;;;15.45;;
26303;SDS011;57113;48.680;8.890;2023-03-01T15:25:47;25.65;;;16.23;;
26303;SDS011;57113;48.680;8.890;2023-03-01T15:28:22;23.88;;;16.08;;
26303;SDS011;57113;48.680;8.890;2023-03-01T15:30:59;27.05;;;16.83;;
26303;SDS011;57113;48.680;8.890;2023-03-01T15:33:36;24.20;;;16.50;;
26303;SDS011;57113;48.680;8.890;2023-03-01T15:36:03;25.38;;;16.70;;
26303;SDS011;57113;48.680;8.890;2023-03-01T15:38:52;25.98;;;15.73;;
26303;SDS011;57113;48.680;8.890;2023-03-01T15:43:48;22.25;;;15.63;;
26303;SDS011;57113;48.680;8.890;2023-03-01T15:48:44;24.23;;;16.27;;
26303;SDS011;57113;48.680;8.890;2023-03-01T15:51:10;26.15;;;16.33;;
26303;SDS011;57113;48.680;8.890;2023-03-01T15:53:39;24.30;;;16.08;;
26303;SDS011;57113;48.680;8.890;2023-03-01T15:56:05;25.45;;;16.50;;
26303;SDS011;57113;48.680;8.890;2023-03-01T15:58:32;25.15;;;16.23;;
26303;SDS011;57113;48.680;8.890;2023-03-01T16:00:58;30.98;;;17.23;;
26303;SDS011;57113;48.680;8.890;2023-03-01T16:03:24;27.02;;;15.93;;
26303;SDS011;57113;48.680;8.890;2023-03-01T16:05:51;29.17;;;16.45;;
26303;SDS011;57113;48.680;8.890;2023-03-01T16:08:17;27.10;;;16.80;;
26303;SDS011;57113;48.680;8.890;2023-03-01T16:10:43;25.92;;;16.48;;
26303;SDS011;57113;48.680;8.890;2023-03-01T16:13:10;27.73;;;17.67;;
26303;SDS011;57113;48.680;8.890;2023-03-01T16:15:37;25.65;;;17.25;;
26303;SDS011;57113;48.680;8.890;2023-03-01T16:18:04;25.10;;;16.50;;
26303;SDS011;57113;48.680;8.890;2023-03-01T16:20:30;26.48;;;17.10;;
26303;SDS011;57113;48.680;8.890;2023-03-01T16:23:03;27.13;;;17.15;;
26303;SDS011;57113;48.680;8.890;2023-03-01T16:25:33;26.80;;;16.92;;
26303;SDS011;57113;48.680;8.890;2023-03-01T16:27:59;27.30;;;16.75;;
26303;SDS011;57113;48.680;8.890;2023-03-01T16:30:29;25.48;;;16.15;;
26303;SDS011;57113;48.680;8.890;2023-03-01T16:32:55;25.45;;;16.60;;